Time,TemperatureF,DewpointF,PressureIn,WindDirection,WindDirectionDegrees,WindSpeedMPH,WindSpeedGustMPH,Humidity,HourlyPrecipIn,Conditions,Clouds,dailyrainin,SolarRadiationWatts/m^2,SoftwareType,DateUTC
2013-09-07 00:12:00,77.3,70.0,29.99,SE,143,0.0,0.0,78,0.00,,,0.00,0,weatherlink.com 1.10,2013-09-07 05:12:00,
2013-09-07 00:27:00,76.5,70.0,29.99,SE,144,0.0,0.0,79,0.00,,,0.00,0,weatherlink.com 1.10,2013-09-07 05:27:00,
2013-09-07 00:42:00,76.0,69.0,29.99,SE,143,0.0,0.0,80,0.00,,,0.00,0,weatherlink.com 1.10,2013-09-07 05:42:00,
2013-09-07 00:57:00,75.5,69.0,29.99,SE,142,0.0,0.0,81,0.00,,,0.00,0,weatherlink.com 1.10,2013-09-07 05:57:00,
2013-09-07 01:12:00,74.9,69.0,29.99,SE,142,0.0,0.0,83,0.00,,,0.00,0,weatherlink.com 1.10,2013-09-07 06:12:00,
2013-09-07 01:27:00,74.5,69.0,29.99,SE,142,0.0,0.0,84,0.00,,,0.00,0,weatherlink.com 1.10,2013-09-07 06:27:00,
2013-09-07 01:43:00,74.1,69.0,29.99,SE,143,0.0,0.0,84,0.00,,,0.00,0,weatherlink.com 1.10,2013-09-07 06:43:00,
2013-09-07 01:58:00,73.7,69.0,29.98,SE,143,0.0,0.0,85,0.00,,,0.00,0,weatherlink.com 1.10,2013-09-07 06:58:00,
2013-09-07 02:13:00,73.3,69.0,29.98,SE,143,0.0,0.0,86,0.00,,,0.00,0,weatherlink.com 1.10,2013-09-07 07:13:00,
2013-09-07 02:28:00,73.1,69.0,29.98,SE,142,0.0,0.0,86,0.00,,,0.00,0,weatherlink.com 1.10,2013-09-07 07:28:00,
2013-09-07 02:43:00,73.0,69.0,29.98,SE,143,0.0,0.0,87,0.00,,,0.00,0,weatherlink.com 1.10,2013-09-07 07:43:00,
2013-09-07 02:58:00,72.6,69.0,29.98,SE,143,0.0,0.0,87,0.00,,,0.00,0,weatherlink.com 1.10,2013-09-07 07:58:00,
2013-09-07 03:13:00,72.3,69.0,29.97,SE,142,0.0,0.0,88,0.00,,,0.00,0,weatherlink.com 1.10,2013-09-07 08:13:00,
2013-09-07 03:28:00,72.2,69.0,29.97,SE,142,0.0,0.0,88,0.00,,,0.00,0,weatherlink.com 1.10,2013-09-07 08:28:00,
2013-09-07 03:43:00,71.9,68.0,29.97,SE,143,0.0,0.0,88,0.00,,,0.00,0,weatherlink.com 1.10,2013-09-07 08:43:00,
2013-09-07 03:58:00,71.6,68.0,29.98,SE,143,0.0,0.0,89,0.00,,,0.00,0,weatherlink.com 1.10,2013-09-07 08:58:00,
2013-09-07 04:13:00,71.4,68.0,29.98,SE,144,0.0,0.0,89,0.00,,,0.00,0,weatherlink.com 1.10,2013-09-07 09:13:00,
2013-09-07 04:28:00,71.3,68.0,29.99,SE,142,0.0,0.0,89,0.00,,,0.00,0,weatherlink.com 1.10,2013-09-07 09:28:00,
2013-09-07 04:43:00,71.1,68.0,29.99,SE,143,0.0,0.0,89,0.00,,,0.00,0,weatherlink.com 1.10,2013-09-07 09:43:00,
2013-09-07 04:58:00,70.8,68.0,29.99,SE,144,0.0,0.0,89,0.00,,,0.00,0,weatherlink.com 1.10,2013-09-07 09:58:00,
2013-09-07 05:13:00,70.8,68.0,30.00,SE,143,0.0,0.0,90,0.00,,,0.00,0,weatherlink.com 1.10,2013-09-07 10:13:00,
2013-09-07 05:28:00,70.7,68.0,30.00,SE,143,0.0,0.0,90,0.00,,,0.00,0,weatherlink.com 1.10,2013-09-07 10:28:00,
2013-09-07 05:43:00,70.4,67.0,30.00,SE,142,0.0,0.0,90,0.00,,,0.00,0,weatherlink.com 1.10,2013-09-07 10:43:00,
2013-09-07 05:58:00,70.0,67.0,30.01,SE,143,0.0,0.0,90,0.00,,,0.00,0,weatherlink.com 1.10,2013-09-07 10:58:00,
2013-09-07 06:13:00,70.1,67.0,30.01,SE,144,0.0,0.0,90,0.00,,,0.00,0,weatherlink.com 1.10,2013-09-07 11:13:00,
2013-09-07 06:28:00,70.2,67.0,30.01,SE,142,0.0,1.0,90,0.00,,,0.00,0,weatherlink.com 1.10,2013-09-07 11:28:00,
2013-09-07 06:43:00,69.9,67.0,30.02,SE,143,0.0,0.0,90,0.00,,,0.00,0,weatherlink.com 1.10,2013-09-07 11:43:00,
2013-09-07 06:58:00,69.7,67.0,30.02,East,95,0.0,0.0,91,0.00,,,0.00,0,weatherlink.com 1.10,2013-09-07 11:58:00,
2013-09-07 07:13:00,69.9,67.0,30.03,East,96,0.0,0.0,91,0.00,,,0.00,11,weatherlink.com 1.10,2013-09-07 12:13:00,
2013-09-07 07:28:00,70.0,67.0,30.03,East,96,0.0,0.0,91,0.00,,,0.00,23,weatherlink.com 1.10,2013-09-07 12:28:00,
2013-09-07 07:43:00,70.2,68.0,30.04,East,95,0.0,0.0,91,0.00,,,0.00,26,weatherlink.com 1.10,2013-09-07 12:43:00,
2013-09-07 07:58:00,70.5,68.0,30.04,East,95,0.0,0.0,91,0.00,,,0.00,44,weatherlink.com 1.10,2013-09-07 12:58:00,
2013-09-07 08:13:00,71.5,69.0,30.04,East,96,0.0,0.0,92,0.00,,,0.00,54,weatherlink.com 1.10,2013-09-07 13:13:00,
2013-09-07 08:28:00,73.2,71.0,30.04,East,95,0.0,0.0,92,0.00,,,0.00,125,weatherlink.com 1.10,2013-09-07 13:28:00,
2013-09-07 08:43:00,74.6,72.0,30.04,East,96,0.0,0.0,92,0.00,,,0.00,77,weatherlink.com 1.10,2013-09-07 13:43:00,
2013-09-07 08:58:00,76.4,74.0,30.04,East,96,0.0,0.0,92,0.00,,,0.00,77,weatherlink.com 1.10,2013-09-07 13:58:00,
2013-09-07 09:13:00,78.0,75.0,30.04,East,95,0.0,0.0,91,0.00,,,0.00,91,weatherlink.com 1.10,2013-09-07 14:13:00,
2013-09-07 09:28:00,79.2,75.0,30.05,East,96,0.0,1.0,87,0.00,,,0.00,100,weatherlink.com 1.10,2013-09-07 14:28:00,
2013-09-07 09:44:00,80.9,75.0,30.05,NW,321,0.0,4.0,83,0.00,,,0.00,422,weatherlink.com 1.10,2013-09-07 14:44:00,
2013-09-07 09:59:00,82.6,75.0,30.05,NW,321,0.0,1.0,78,0.00,,,0.00,534,weatherlink.com 1.10,2013-09-07 14:59:00,
2013-09-07 10:14:00,84.2,76.0,30.05,NNE,17,0.0,4.0,75,0.00,,,0.00,591,weatherlink.com 1.10,2013-09-07 15:14:00,
2013-09-07 10:29:00,85.4,76.0,30.05,NNE,17,0.0,0.0,74,0.00,,,0.00,652,weatherlink.com 1.10,2013-09-07 15:29:00,
2013-09-07 10:44:00,86.1,75.0,30.05,NNE,18,0.0,3.0,70,0.00,,,0.00,668,weatherlink.com 1.10,2013-09-07 15:44:00,
2013-09-07 10:59:00,86.4,76.0,30.05,NNE,17,0.0,2.0,70,0.00,,,0.00,733,weatherlink.com 1.10,2013-09-07 15:59:00,
2013-09-07 11:14:00,88.1,76.0,30.04,ESE,109,0.0,2.0,67,0.00,,,0.00,840,weatherlink.com 1.10,2013-09-07 16:14:00,
2013-09-07 11:29:00,88.1,74.0,30.04,SE,145,0.0,2.0,63,0.00,,,0.00,248,weatherlink.com 1.10,2013-09-07 16:29:00,
2013-09-07 11:44:00,88.0,74.0,30.04,NW,323,1.0,4.0,64,0.00,,,0.00,844,weatherlink.com 1.10,2013-09-07 16:44:00,
2013-09-07 11:59:00,89.6,74.0,30.03,SSE,152,0.0,3.0,60,0.00,,,0.00,886,weatherlink.com 1.10,2013-09-07 16:59:00,
2013-09-07 12:14:00,90.3,76.0,30.03,NE,42,0.0,4.0,62,0.00,,,0.00,976,weatherlink.com 1.10,2013-09-07 17:14:00,
2013-09-07 12:29:00,91.9,76.0,30.03,NNE,32,1.0,4.0,59,0.00,,,0.00,856,weatherlink.com 1.10,2013-09-07 17:29:00,
2013-09-07 12:44:00,90.9,75.0,30.02,NNE,32,0.0,1.0,59,0.00,,,0.00,900,weatherlink.com 1.10,2013-09-07 17:44:00,
2013-09-07 12:59:00,90.5,74.0,30.02,ESE,115,0.0,2.0,58,0.00,,,0.00,213,weatherlink.com 1.10,2013-09-07 17:59:00,
2013-09-07 13:14:00,91.1,74.0,30.01,East,94,1.0,2.0,58,0.00,,,0.00,898,weatherlink.com 1.10,2013-09-07 18:14:00,
2013-09-07 13:29:00,92.4,74.0,30.00,ENE,71,1.0,4.0,55,0.00,,,0.00,937,weatherlink.com 1.10,2013-09-07 18:29:00,
2013-09-07 13:44:00,93.2,73.0,29.99,East,85,1.0,6.0,52,0.00,,,0.00,886,weatherlink.com 1.10,2013-09-07 18:44:00,
2013-09-07 13:59:00,93.4,70.0,29.98,SE,125,2.0,5.0,47,0.00,,,0.00,633,weatherlink.com 1.10,2013-09-07 18:59:00,
2013-09-07 14:14:00,92.4,71.0,29.97,NE,40,0.0,2.0,50,0.00,,,0.00,221,weatherlink.com 1.10,2013-09-07 19:14:00,
2013-09-07 14:29:00,91.5,70.0,29.97,NE,54,0.0,2.0,50,0.00,,,0.00,214,weatherlink.com 1.10,2013-09-07 19:29:00,
2013-09-07 14:44:00,90.9,71.0,29.96,NE,55,0.0,1.0,53,0.00,,,0.00,84,weatherlink.com 1.10,2013-09-07 19:44:00,
2013-09-07 14:59:00,89.9,72.0,29.95,NE,55,0.0,0.0,56,0.00,,,0.00,360,weatherlink.com 1.10,2013-09-07 19:59:00,
2013-09-07 15:14:00,91.4,71.0,29.94,NE,54,0.0,2.0,51,0.00,,,0.00,722,weatherlink.com 1.10,2013-09-07 20:14:00,
2013-09-07 15:29:00,92.6,71.0,29.94,SSW,196,0.0,6.0,49,0.00,,,0.00,666,weatherlink.com 1.10,2013-09-07 20:29:00,
2013-09-07 15:45:00,93.9,71.0,29.93,East,93,1.0,4.0,47,0.00,,,0.00,680,weatherlink.com 1.10,2013-09-07 20:45:00,
2013-09-07 16:00:00,94.1,70.0,29.93,South,172,0.0,5.0,45,0.00,,,0.00,109,weatherlink.com 1.10,2013-09-07 21:00:00,
2013-09-07 16:15:00,93.1,68.0,29.92,North,4,1.0,5.0,44,0.00,,,0.00,550,weatherlink.com 1.10,2013-09-07 21:15:00,
2013-09-07 16:30:00,93.4,69.0,29.91,South,188,1.0,5.0,45,0.00,,,0.00,510,weatherlink.com 1.10,2013-09-07 21:30:00,
2013-09-07 16:45:00,93.8,69.0,29.92,East,93,0.0,6.0,44,0.00,,,0.00,394,weatherlink.com 1.10,2013-09-07 21:45:00,
2013-09-07 17:00:00,93.1,67.0,29.92,East,92,0.0,1.0,42,0.00,,,0.00,388,weatherlink.com 1.10,2013-09-07 22:00:00,
2013-09-07 17:15:00,92.8,68.0,29.92,East,101,1.0,4.0,44,0.00,,,0.00,366,weatherlink.com 1.10,2013-09-07 22:15:00,
2013-09-07 17:30:00,93.1,68.0,29.92,East,89,1.0,2.0,44,0.00,,,0.00,308,weatherlink.com 1.10,2013-09-07 22:30:00,
2013-09-07 17:45:00,92.8,69.0,29.93,SE,134,0.0,5.0,46,0.00,,,0.00,60,weatherlink.com 1.10,2013-09-07 22:45:00,
2013-09-07 18:00:00,91.8,69.0,29.93,ESE,123,0.0,1.0,47,0.00,,,0.00,54,weatherlink.com 1.10,2013-09-07 23:00:00,
2013-09-07 18:15:00,91.5,69.0,29.93,South,188,0.0,4.0,48,0.00,,,0.00,47,weatherlink.com 1.10,2013-09-07 23:15:00,
2013-09-07 18:30:00,90.8,70.0,29.93,SE,126,0.0,2.0,50,0.00,,,0.00,37,weatherlink.com 1.10,2013-09-07 23:30:00,
2013-09-07 18:45:00,89.8,69.0,29.93,SE,126,0.0,0.0,51,0.00,,,0.00,26,weatherlink.com 1.10,2013-09-07 23:45:00,
2013-09-07 19:00:00,88.9,71.0,29.94,SE,126,0.0,0.0,55,0.00,,,0.00,12,weatherlink.com 1.10,2013-09-08 00:00:00,
2013-09-07 19:15:00,87.5,70.0,29.94,SE,125,0.0,0.0,57,0.00,,,0.00,0,weatherlink.com 1.10,2013-09-08 00:15:00,
2013-09-07 19:30:00,85.9,70.0,29.94,SE,127,0.0,0.0,59,0.00,,,0.00,0,weatherlink.com 1.10,2013-09-08 00:30:00,
2013-09-07 19:45:00,84.8,70.0,29.95,South,184,0.0,1.0,61,0.00,,,0.00,0,weatherlink.com 1.10,2013-09-08 00:45:00,
2013-09-07 20:00:00,83.7,70.0,29.95,South,184,0.0,0.0,64,0.00,,,0.00,0,weatherlink.com 1.10,2013-09-08 01:00:00,
2013-09-07 20:15:00,82.3,69.0,29.95,South,184,0.0,0.0,65,0.00,,,0.00,0,weatherlink.com 1.10,2013-09-08 01:15:00,
2013-09-07 20:30:00,81.8,70.0,29.95,North,4,0.0,2.0,68,0.00,,,0.00,0,weatherlink.com 1.10,2013-09-08 01:30:00,
2013-09-07 20:45:00,80.5,70.0,29.95,SSW,195,0.0,2.0,70,0.00,,,0.00,0,weatherlink.com 1.10,2013-09-08 01:45:00,
2013-09-07 21:00:00,79.8,70.0,29.96,SSW,195,0.0,1.0,72,0.00,,,0.00,0,weatherlink.com 1.10,2013-09-08 02:00:00,
2013-09-07 21:15:00,79.4,70.0,29.96,SSW,196,0.0,0.0,73,0.00,,,0.00,0,weatherlink.com 1.10,2013-09-08 02:15:00,
2013-09-07 21:30:00,78.9,70.0,29.96,SSW,194,0.0,0.0,74,0.00,,,0.00,0,weatherlink.com 1.10,2013-09-08 02:30:00,
2013-09-07 21:45:00,78.3,70.0,29.97,SSW,195,0.0,1.0,75,0.00,,,0.00,0,weatherlink.com 1.10,2013-09-08 02:45:00,
2013-09-07 22:00:00,77.5,69.0,29.98,SSW,195,0.0,1.0,76,0.00,,,0.00,0,weatherlink.com 1.10,2013-09-08 03:00:00,
2013-09-07 22:15:00,77.2,70.0,29.98,SSW,196,0.0,2.0,77,0.00,,,0.00,0,weatherlink.com 1.10,2013-09-08 03:15:00,
2013-09-07 22:30:00,76.7,69.0,29.98,SSW,195,0.0,0.0,78,0.00,,,0.00,0,weatherlink.com 1.10,2013-09-08 03:30:00,
2013-09-07 22:45:00,76.3,69.0,29.98,SSW,195,0.0,0.0,79,0.00,,,0.00,0,weatherlink.com 1.10,2013-09-08 03:45:00,
2013-09-07 23:00:00,75.8,69.0,29.98,SSW,194,0.0,1.0,80,0.00,,,0.00,0,weatherlink.com 1.10,2013-09-08 04:00:00,
2013-09-07 23:15:00,75.6,69.0,29.98,SSW,194,0.0,0.0,81,0.00,,,0.00,0,weatherlink.com 1.10,2013-09-08 04:15:00,
2013-09-07 23:30:00,75.5,70.0,29.97,SSW,195,0.0,2.0,82,0.00,,,0.00,0,weatherlink.com 1.10,2013-09-08 04:30:00,
2013-09-07 23:45:00,75.2,69.0,29.97,SSW,195,0.0,0.0,82,0.00,,,0.00,0,weatherlink.com 1.10,2013-09-08 04:45:00,